Bletchingley, United Kingdom
Current Conditions -  °F | °C
As of 12:20 PM on Thursday 18 Dec 2014 (Local Time) from EGKK Reporting Station
Broken Clouds Broken Clouds  
Wind Chill: 52°   Ceiling: 700
Heat Index: 52°   Visibility: 6mi
Dew Point: 52°   Wind: 12mph
Humidity: 100%   Direction: 230°SW
Pressure: 29.85"   Gusts: NA
Location:  51.24°N, 0.1°W
Report Text: EGKK 181220Z 23010KT 200V260 9999 BKN007 11/11 Q1011
Loading
Personal Weather Stations






























Interactive Weather Map New forecast layout! Learn more

10-Day Weather Forecast

Advertisements
Track Severe Weather on mobile